Time;durP1;ratioP1;P1;durP2;ratioP2;P2;SDS_P1;SDS_P2;PMS_P1;PMS_P2;Temp;Humidity;BMP_temperature;BMP_pressure;BME280_temperature;BME280_humidity;BME280_pressure;Samples;Min_cycle;Max_cycle;Signal;HPM_P1;HPM_P2
2022/07/25 00:01:48;;;;;;;6.40;4.00;;;;;;;18.57;66.48;100674.25;105725;1278;22692;-80
2022/07/25 00:04:16;;;;;;;6.40;4.10;;;;;;;18.56;66.42;100670.88;105930;1276;25258;-78
2022/07/25 00:06:45;;;;;;;5.40;4.40;;;;;;;18.56;66.48;100671.41;106010;1277;24338;-80
2022/07/25 00:09:12;;;;;;;5.80;4.20;;;;;;;18.56;66.49;100670.00;106104;1276;25442;-78
2022/07/25 00:11:40;;;;;;;5.70;4.50;;;;;;;18.54;66.52;100669.38;105927;1276;25474;-79
2022/07/25 00:14:08;;;;;;;5.10;4.20;;;;;;;18.50;66.56;100671.64;106035;1276;25519;-80
2022/07/25 00:16:36;;;;;;;7.00;4.10;;;;;;;18.48;66.68;100674.05;105753;1276;24241;-80
2022/07/25 00:19:03;;;;;;;7.10;3.80;;;;;;;18.48;66.87;100666.74;105767;1277;22969;-78
2022/07/25 00:21:30;;;;;;;4.90;4.00;;;;;;;18.47;66.86;100665.52;106023;1277;22543;-78
2022/07/25 00:23:57;;;;;;;6.30;3.90;;;;;;;18.48;66.90;100660.85;105770;1276;22766;-79
2022/07/25 00:26:24;;;;;;;5.30;4.00;;;;;;;18.50;66.93;100658.98;106000;1276;22589;-79
2022/07/25 00:28:51;;;;;;;5.50;4.00;;;;;;;18.51;66.95;100656.45;105881;1277;22574;-78
2022/07/25 00:31:18;;;;;;;4.60;4.00;;;;;;;18.51;66.92;100649.66;105816;1277;25484;-79
2022/07/25 00:33:44;;;;;;;5.70;4.60;;;;;;;18.50;66.94;100642.21;106055;1276;26213;-79
2022/07/25 00:36:12;;;;;;;4.70;4.20;;;;;;;18.50;67.03;100641.17;105856;1277;25472;-80
2022/07/25 00:38:39;;;;;;;4.70;4.10;;;;;;;18.47;67.14;100631.13;106126;1276;23976;-79
2022/07/25 00:41:06;;;;;;;4.50;4.00;;;;;;;18.43;67.21;100626.80;106256;1276;22606;-77
2022/07/25 00:43:33;;;;;;;4.90;4.10;;;;;;;18.42;67.13;100633.27;105900;1281;23114;-79
2022/07/25 00:45:59;;;;;;;6.10;3.90;;;;;;;18.37;67.17;100632.21;105818;1281;22707;-80
2022/07/25 00:48:27;;;;;;;5.00;4.50;;;;;;;18.37;67.27;100633.83;105895;1281;23973;-77
2022/07/25 00:50:55;;;;;;;6.40;4.30;;;;;;;18.36;67.34;100634.75;106219;1281;25884;-79
2022/07/25 00:53:24;;;;;;;5.30;4.00;;;;;;;18.36;67.46;100641.35;106642;1281;23059;-77
2022/07/25 00:55:52;;;;;;;4.80;4.00;;;;;;;18.38;67.45;100642.85;106694;1284;26549;-78
2022/07/25 00:58:19;;;;;;;5.60;3.80;;;;;;;18.39;67.48;100647.27;106549;1285;25353;-77
2022/07/25 01:00:47;;;;;;;6.30;4.10;;;;;;;18.36;67.56;100644.71;106005;1285;22642;-80
2022/07/25 01:03:15;;;;;;;6.00;3.80;;;;;;;18.26;67.66;100643.11;105562;1281;25312;-76
2022/07/25 01:05:43;;;;;;;5.80;4.00;;;;;;;18.19;67.70;100643.54;105423;1281;25521;-77
2022/07/25 01:08:11;;;;;;;4.20;3.60;;;;;;;18.19;67.98;100648.89;105386;1281;22559;-80
2022/07/25 01:10:38;;;;;;;5.60;4.10;;;;;;;18.19;68.11;100644.45;105291;1281;24304;-84
2022/07/25 01:13:05;;;;;;;5.40;4.00;;;;;;;18.17;68.18;100642.02;105207;1282;25493;-79
2022/07/25 01:15:32;;;;;;;4.50;3.60;;;;;;;18.15;68.24;100636.92;106027;1276;22579;-78
2022/07/25 01:17:59;;;;;;;4.30;3.90;;;;;;;18.15;68.45;100636.05;105992;1276;25597;-79
2022/07/25 01:20:28;;;;;;;4.30;3.90;;;;;;;18.15;68.46;100636.95;105900;1276;25445;-76
2022/07/25 01:22:56;;;;;;;6.80;4.50;;;;;;;18.13;68.36;100639.67;106108;1277;25391;-78
2022/07/25 01:25:23;;;;;;;5.10;4.20;;;;;;;18.11;68.58;100636.70;106034;1276;22630;-78
2022/07/25 01:27:52;;;;;;;3.60;3.30;;;;;;;18.07;68.66;100632.73;106025;1276;25557;-78
2022/07/25 01:30:23;;;;;;;4.10;3.70;;;;;;;18.09;68.67;100632.31;105947;1276;24385;-78
2022/07/25 01:32:51;;;;;;;6.00;4.00;;;;;;;18.09;68.89;100629.64;105749;1276;25410;-79
2022/07/25 01:35:18;;;;;;;6.90;4.20;;;;;;;18.07;68.80;100626.68;106031;1276;25438;-78
2022/07/25 01:37:45;;;;;;;4.20;3.80;;;;;;;18.06;69.02;100625.65;105932;1275;22609;-78
2022/07/25 01:40:13;;;;;;;5.30;4.30;;;;;;;18.04;68.90;100625.19;105936;1274;25881;-79
2022/07/25 01:42:41;;;;;;;5.10;4.60;;;;;;;18.03;69.07;100625.03;105809;1274;23146;-79
2022/07/25 01:45:10;;;;;;;5.20;4.30;;;;;;;18.04;69.23;100628.23;105927;1274;24338;-79
2022/07/25 01:47:37;;;;;;;5.90;4.20;;;;;;;17.99;69.19;100621.97;106041;1274;27052;-78
2022/07/25 01:50:06;;;;;;;5.50;4.20;;;;;;;17.96;69.15;100620.48;105630;1277;22557;-80
2022/07/25 01:52:32;;;;;;;6.40;4.50;;;;;;;17.94;69.30;100627.14;105959;1277;24262;-79
2022/07/25 01:54:59;;;;;;;5.20;4.00;;;;;;;17.92;69.44;100629.01;105925;1276;24678;-78
2022/07/25 01:57:26;;;;;;;6.00;4.10;;;;;;;17.92;69.44;100625.44;105788;1276;25603;-79
2022/07/25 01:59:58;;;;;;;5.40;4.60;;;;;;;17.91;69.44;100623.33;105981;1274;25571;-79
2022/07/25 02:02:25;;;;;;;11.50;4.30;;;;;;;17.91;69.61;100627.95;105898;1274;22535;-78
2022/07/25 02:04:53;;;;;;;5.10;4.00;;;;;;;17.92;69.74;100625.60;105533;1275;22556;-82
2022/07/25 02:07:20;;;;;;;5.60;4.50;;;;;;;17.89;69.49;100624.98;105782;1274;22626;-81
2022/07/25 02:09:47;;;;;;;4.80;4.30;;;;;;;17.86;69.67;100628.14;106038;1274;25467;-78
2022/07/25 02:12:20;;;;;;;5.70;4.10;;;;;;;17.82;69.85;100624.52;105842;1276;24367;-78
2022/07/25 02:14:47;;;;;;;5.20;3.80;;;;;;;17.80;69.69;100624.77;105609;1276;25631;-81
2022/07/25 02:17:14;;;;;;;4.40;4.00;;;;;;;17.80;69.80;100617.83;105864;1275;24814;-81
2022/07/25 02:19:41;;;;;;;4.60;4.20;;;;;;;17.79;69.94;100618.39;106068;1274;25442;-82
2022/07/25 02:22:08;;;;;;;4.30;3.90;;;;;;;17.79;69.96;100621.43;106142;1274;25345;-79
2022/07/25 02:24:36;;;;;;;5.90;4.20;;;;;;;17.77;69.95;100618.98;105831;1274;22715;-79
2022/07/25 02:27:04;;;;;;;6.70;4.00;;;;;;;17.76;70.03;100615.69;105301;1282;25402;-79
2022/07/25 02:29:31;;;;;;;4.70;4.30;;;;;;;17.71;70.21;100611.05;105217;1284;22588;-74
2022/07/25 02:31:58;;;;;;;4.40;4.00;;;;;;;17.70;70.25;100618.55;105184;1284;22537;-79
2022/07/25 02:34:25;;;;;;;4.10;3.70;;;;;;;17.68;70.19;100617.73;105308;1282;22713;-78
2022/07/25 02:36:53;;;;;;;6.00;4.20;;;;;;;17.67;70.23;100617.95;105173;1282;22693;-79
2022/07/25 02:39:20;;;;;;;5.80;4.40;;;;;;;17.64;70.05;100622.13;105315;1282;22539;-77
2022/07/25 02:41:47;;;;;;;4.90;4.30;;;;;;;17.57;70.12;100623.07;105143;1282;25580;-78
2022/07/25 02:44:14;;;;;;;4.70;4.30;;;;;;;17.53;70.26;100622.72;105284;1282;22550;-78
2022/07/25 02:46:41;;;;;;;4.50;4.10;;;;;;;17.53;70.39;100625.71;105577;1276;25330;-79
2022/07/25 02:49:08;;;;;;;4.50;4.00;;;;;;;17.55;70.39;100622.80;105994;1274;24211;-78
2022/07/25 02:51:35;;;;;;;6.10;4.00;;;;;;;17.55;70.42;100622.09;105403;1281;24491;-79
2022/07/25 02:54:02;;;;;;;5.40;4.00;;;;;;;17.55;70.33;100628.15;105453;1281;24194;-78
2022/07/25 02:56:29;;;;;;;5.10;4.00;;;;;;;17.54;70.60;100628.73;105235;1281;25565;-76
2022/07/25 02:58:58;;;;;;;4.50;3.80;;;;;;;17.54;70.40;100628.55;105605;1282;24043;-79
2022/07/25 03:01:25;;;;;;;5.70;4.30;;;;;;;17.49;70.16;100636.17;105846;1281;22543;-80
2022/07/25 03:03:52;;;;;;;6.60;4.40;;;;;;;17.48;70.42;100636.55;105671;1281;25326;-79
2022/07/25 03:06:19;;;;;;;6.30;4.40;;;;;;;17.49;70.56;100632.98;105506;1281;24265;-79
2022/07/25 03:08:46;;;;;;;6.50;4.70;;;;;;;17.50;70.47;100633.48;105230;1284;26524;-80
2022/07/25 03:11:13;;;;;;;4.80;4.40;;;;;;;17.51;70.36;100629.36;105598;1281;22560;-81
2022/07/25 03:13:40;;;;;;;5.80;5.20;;;;;;;17.48;70.26;100626.80;105401;1281;24246;-77
2022/07/25 03:16:08;;;;;;;5.60;4.30;;;;;;;17.45;70.46;100629.54;105406;1281;22627;-79
2022/07/25 03:18:35;;;;;;;6.10;5.50;;;;;;;17.47;70.43;100630.55;105599;1281;22878;-79
2022/07/25 03:21:02;;;;;;;5.90;4.80;;;;;;;17.44;70.32;100629.75;105554;1279;22565;-75
2022/07/25 03:23:30;;;;;;;5.60;5.10;;;;;;;17.44;70.51;100628.69;105669;1279;22846;-79
2022/07/25 03:25:57;;;;;;;5.70;5.10;;;;;;;17.49;70.66;100626.92;106156;1279;23987;-78
2022/07/25 03:28:24;;;;;;;7.00;5.70;;;;;;;17.52;70.64;100628.79;106472;1275;24396;-75
2022/07/25 03:30:52;;;;;;;6.30;5.70;;;;;;;17.52;70.56;100627.89;105749;1281;25475;-79
2022/07/25 03:33:19;;;;;;;5.90;5.30;;;;;;;17.52;70.52;100620.23;106071;1281;22731;-77
2022/07/25 03:35:46;;;;;;;6.90;5.70;;;;;;;17.52;70.57;100619.34;106340;1281;25457;-78
2022/07/25 03:38:13;;;;;;;6.70;5.90;;;;;;;17.55;70.61;100619.78;106673;1281;24271;-78
2022/07/25 03:40:39;;;;;;;6.80;5.90;;;;;;;17.57;70.51;100622.02;107022;1281;22961;-78
2022/07/25 03:43:07;;;;;;;7.60;6.40;;;;;;;17.60;70.61;100630.13;106742;1282;22570;-77
2022/07/25 03:45:34;;;;;;;7.30;6.20;;;;;;;17.65;70.53;100627.44;107666;1281;22532;-79
2022/07/25 03:48:01;;;;;;;7.30;6.10;;;;;;;17.67;70.32;100633.06;107206;1282;22757;-78
2022/07/25 03:50:28;;;;;;;10.60;6.20;;;;;;;17.70;70.34;100631.89;106642;1276;22545;-78
2022/07/25 03:52:55;;;;;;;6.90;6.10;;;;;;;17.70;70.25;100628.34;106946;1275;23148;-77
2022/07/25 03:55:22;;;;;;;8.90;6.60;;;;;;;17.71;70.21;100632.77;107677;1274;22622;-77
2022/07/25 03:57:49;;;;;;;7.20;5.60;;;;;;;17.70;70.26;100632.27;107709;1274;25238;-77
2022/07/25 04:00:17;;;;;;;6.80;5.80;;;;;;;17.72;70.11;100628.09;107719;1274;22647;-77
2022/07/25 04:02:43;;;;;;;7.30;5.20;;;;;;;17.74;70.18;100626.40;107015;1274;24298;-78
2022/07/25 04:05:10;;;;;;;8.20;5.20;;;;;;;17.74;70.17;100621.63;106110;1275;22474;-79
2022/07/25 04:07:38;;;;;;;7.60;6.40;;;;;;;17.77;70.25;100621.86;105767;1274;26702;-79
2022/07/25 04:10:06;;;;;;;8.30;5.90;;;;;;;17.79;70.18;100618.95;105855;1275;24325;-78
2022/07/25 04:12:34;;;;;;;6.40;5.60;;;;;;;17.84;70.14;100624.29;105971;1275;22574;-77
2022/07/25 04:15:01;;;;;;;7.30;5.70;;;;;;;17.82;69.93;100620.25;106001;1274;22757;-78
2022/07/25 04:17:27;;;;;;;8.50;6.10;;;;;;;17.81;69.87;100622.10;105628;1275;23032;-81
2022/07/25 04:19:56;;;;;;;5.70;5.20;;;;;;;17.78;69.84;100623.97;105960;1274;25683;-77
2022/07/25 04:22:22;;;;;;;9.10;6.00;;;;;;;17.79;70.11;100624.30;105370;1281;24411;-77
2022/07/25 04:24:49;;;;;;;9.00;5.90;;;;;;;17.87;70.16;100624.73;105321;1282;23092;-77
2022/07/25 04:27:16;;;;;;;6.00;5.40;;;;;;;17.92;69.89;100627.39;105407;1281;24095;-78
2022/07/25 04:29:43;;;;;;;6.00;5.50;;;;;;;17.99;69.84;100624.66;105689;1280;22535;-78
2022/07/25 04:32:10;;;;;;;8.20;5.60;;;;;;;18.04;69.47;100625.36;105532;1281;22543;-76
2022/07/25 04:34:37;;;;;;;6.70;5.70;;;;;;;18.07;69.39;100624.72;105603;1281;24229;-80
2022/07/25 04:37:04;;;;;;;6.20;5.00;;;;;;;18.11;69.12;100621.56;105836;1281;25240;-78
2022/07/25 04:39:31;;;;;;;8.30;5.30;;;;;;;18.14;69.08;100626.27;105414;1282;22765;-76
2022/07/25 04:41:58;;;;;;;6.30;5.00;;;;;;;18.15;68.96;100622.84;105861;1274;22613;-78
2022/07/25 04:44:25;;;;;;;7.70;4.60;;;;;;;18.18;68.84;100621.33;105786;1275;22755;-80
2022/07/25 04:46:52;;;;;;;5.70;5.10;;;;;;;18.22;68.86;100619.92;105841;1274;26861;-78
2022/07/25 04:49:19;;;;;;;4.50;4.10;;;;;;;18.23;68.43;100619.53;106050;1274;25322;-81
2022/07/25 04:51:46;;;;;;;4.90;4.30;;;;;;;18.24;67.86;100620.39;105891;1274;24119;-78
2022/07/25 04:54:13;;;;;;;6.00;4.30;;;;;;;18.21;67.82;100620.84;105899;1275;22543;-78
2022/07/25 04:56:40;;;;;;;8.20;4.90;;;;;;;18.24;67.86;100620.37;105835;1277;22564;-78
2022/07/25 04:59:07;;;;;;;8.20;4.90;;;;;;;18.28;67.90;100620.93;105780;1276;26489;-78
2022/07/25 05:01:34;;;;;;;5.80;4.80;;;;;;;18.30;67.90;100619.42;105823;1276;22710;-78
2022/07/25 05:04:01;;;;;;;4.30;3.70;;;;;;;18.35;67.71;100622.48;106256;1274;25520;-77
2022/07/25 05:06:28;;;;;;;7.90;4.10;;;;;;;18.34;67.14;100621.08;105896;1278;25814;-79
2022/07/25 05:08:55;;;;;;;4.70;4.10;;;;;;;18.32;67.13;100620.08;106035;1274;22550;-79
2022/07/25 05:11:22;;;;;;;6.00;4.20;;;;;;;18.32;67.19;100618.48;106079;1274;25635;-79
2022/07/25 05:13:49;;;;;;;4.60;3.40;;;;;;;18.37;66.88;100618.11;106108;1274;22591;-78
2022/07/25 05:16:15;;;;;;;5.00;3.50;;;;;;;18.42;66.69;100614.54;105953;1277;26133;-79
2022/07/25 05:18:42;;;;;;;4.80;4.10;;;;;;;18.50;66.59;100612.45;105701;1274;22553;-80
2022/07/25 05:21:11;;;;;;;8.10;4.80;;;;;;;18.57;66.58;100613.97;105972;1274;22548;-78
2022/07/25 05:23:40;;;;;;;6.90;3.90;;;;;;;18.66;66.66;100611.98;106058;1274;26526;-78
2022/07/25 05:26:06;;;;;;;5.20;4.30;;;;;;;18.72;66.42;100607.34;105568;1281;25479;-78
2022/07/25 05:28:33;;;;;;;5.10;3.60;;;;;;;18.71;66.06;100599.52;105539;1281;25247;-78
2022/07/25 05:31:00;;;;;;;7.00;3.80;;;;;;;18.70;65.87;100597.21;105445;1281;25396;-78
2022/07/25 05:33:28;;;;;;;4.80;3.20;;;;;;;18.70;65.77;100594.02;105241;1281;22580;-80
2022/07/25 05:35:55;;;;;;;4.80;3.80;;;;;;;18.69;65.65;100591.20;105585;1281;26495;-79
2022/07/25 05:38:22;;;;;;;5.30;3.80;;;;;;;18.69;65.55;100592.45;105615;1281;22528;-79
2022/07/25 05:40:50;;;;;;;4.80;3.80;;;;;;;18.72;65.77;100591.08;105660;1282;22598;-76
2022/07/25 05:43:18;;;;;;;5.40;3.80;;;;;;;18.77;65.61;100591.77;105658;1281;24194;-80
2022/07/25 05:45:48;;;;;;;6.80;3.70;;;;;;;18.80;65.48;100582.20;105862;1276;22637;-79
2022/07/25 05:48:15;;;;;;;5.60;3.00;;;;;;;18.86;65.26;100585.90;105967;1274;25313;-78
2022/07/25 05:50:44;;;;;;;7.00;2.80;;;;;;;18.92;65.08;100583.48;106126;1280;22722;-77
2022/07/25 05:53:11;;;;;;;7.10;2.90;;;;;;;18.98;64.85;100581.69;105632;1281;26208;-78
2022/07/25 05:55:38;;;;;;;4.20;2.50;;;;;;;19.07;64.55;100586.11;105689;1281;22642;-79
2022/07/25 05:58:08;;;;;;;3.90;2.60;;;;;;;19.13;64.21;100586.60;105519;1281;25322;-80
2022/07/25 06:00:36;;;;;;;3.70;2.60;;;;;;;19.14;63.76;100579.23;105588;1281;25836;-76
2022/07/25 06:03:03;;;;;;;3.10;2.80;;;;;;;19.15;63.76;100582.77;105813;1281;25238;-77
2022/07/25 06:05:31;;;;;;;4.60;2.90;;;;;;;19.16;63.60;100580.21;105513;1281;26727;-78
2022/07/25 06:07:58;;;;;;;3.50;3.20;;;;;;;19.16;63.55;100584.15;105484;1279;25350;-78
2022/07/25 06:10:25;;;;;;;4.50;2.80;;;;;;;19.16;63.40;100582.39;105893;1277;24686;-78
2022/07/25 06:12:52;;;;;;;4.60;3.20;;;;;;;19.13;63.37;100577.88;106183;1274;22894;-78
2022/07/25 06:15:19;;;;;;;6.10;3.00;;;;;;;19.13;63.52;100581.96;106171;1275;22626;-76
2022/07/25 06:17:53;;;;;;;3.00;2.80;;;;;;;19.13;63.71;100585.71;105829;1275;27488;-78
2022/07/25 06:20:20;;;;;;;4.40;2.70;;;;;;;19.17;63.75;100581.79;106090;1276;22569;-77
2022/07/25 06:22:47;;;;;;;6.20;2.90;;;;;;;19.20;63.79;100576.14;105654;1281;22728;-79
2022/07/25 06:25:14;;;;;;;3.20;2.90;;;;;;;19.24;63.75;100571.52;105702;1279;22574;-78
2022/07/25 06:27:42;;;;;;;5.90;2.80;;;;;;;19.25;63.64;100568.05;105548;1279;25616;-77
2022/07/25 06:30:11;;;;;;;5.00;2.70;;;;;;;19.31;63.62;100563.39;105547;1281;22546;-75
2022/07/25 06:32:46;;;;;;;4.80;3.40;;;;;;;19.37;63.48;100563.84;105563;1281;24723;-77
2022/07/25 06:35:14;;;;;;;4.00;2.70;;;;;;;19.43;63.56;100557.34;105770;1279;22731;-75
2022/07/25 06:37:41;;;;;;;4.20;2.80;;;;;;;19.48;63.41;100561.23;105632;1281;23165;-74
2022/07/25 06:40:08;;;;;;;5.30;3.30;;;;;;;19.51;63.45;100555.52;106248;1275;22544;-78
2022/07/25 06:42:40;;;;;;;2.90;2.60;;;;;;;19.57;63.44;100552.08;105500;1275;531065;-79
2022/07/25 06:45:08;;;;;;;8.60;3.40;;;;;;;19.65;63.50;100549.59;106015;1274;24205;-79
2022/07/25 06:47:40;;;;;;;4.50;3.20;;;;;;;19.69;63.25;100552.23;105956;1276;22549;-78
2022/07/25 06:50:10;;;;;;;3.70;2.90;;;;;;;19.74;62.96;100547.56;106002;1273;25226;-77
2022/07/25 06:52:38;;;;;;;3.40;3.00;;;;;;;19.74;62.60;100545.43;105858;1274;24198;-77
2022/07/25 06:55:07;;;;;;;4.10;2.90;;;;;;;19.76;62.45;100544.27;105976;1274;22541;-80
2022/07/25 06:57:35;;;;;;;3.40;3.00;;;;;;;19.78;62.09;100540.38;106036;1274;26006;-78
2022/07/25 07:00:08;;;;;;;3.70;2.90;;;;;;;19.81;62.11;100535.27;105707;1275;25361;-78
2022/07/25 07:02:50;;;;;;;4.10;3.00;;;;;;;19.88;62.12;100539.98;105892;1274;25513;-77
2022/07/25 07:05:19;;;;;;;3.20;2.50;;;;;;;19.96;61.82;100539.80;105923;1274;22547;-79
2022/07/25 07:07:46;;;;;;;4.50;2.60;;;;;;;20.00;61.49;100539.94;106147;1274;22509;-80
2022/07/25 07:10:15;;;;;;;3.30;2.50;;;;;;;20.04;61.48;100539.96;106050;1274;25256;-78
2022/07/25 07:12:42;;;;;;;7.40;2.40;;;;;;;20.11;61.38;100539.50;105888;1275;22556;-79
2022/07/25 07:15:10;;;;;;;3.20;2.90;;;;;;;20.16;60.90;100540.30;105848;1274;22579;-79
2022/07/25 07:17:37;;;;;;;2.40;2.20;;;;;;;20.21;60.58;100539.20;105923;1275;24449;-79
2022/07/25 07:20:07;;;;;;;3.30;2.50;;;;;;;20.26;60.32;100539.52;105932;1274;23927;-75
2022/07/25 07:22:45;;;;;;;6.00;2.50;;;;;;;20.33;60.10;100540.63;105823;1276;22573;-75
2022/07/25 07:25:15;;;;;;;4.60;2.50;;;;;;;20.36;59.86;100539.20;106083;1276;22537;-75
2022/07/25 07:27:43;;;;;;;4.00;2.10;;;;;;;20.39;59.87;100533.01;105997;1276;22553;-77
2022/07/25 07:30:13;;;;;;;4.40;2.60;;;;;;;20.44;59.64;100528.67;106186;1274;22542;-81
2022/07/25 07:32:42;;;;;;;2.80;2.60;;;;;;;20.48;59.48;100525.21;105978;1276;22643;-76
2022/07/25 07:35:10;;;;;;;2.60;2.40;;;;;;;20.55;59.30;100517.90;106033;1275;23943;-76
2022/07/25 07:37:38;;;;;;;5.80;2.60;;;;;;;20.64;59.26;100523.21;105867;1274;25235;-76
2022/07/25 07:40:10;;;;;;;4.00;2.80;;;;;;;20.72;59.30;100519.06;105734;1274;25321;-79
2022/07/25 07:42:45;;;;;;;3.00;2.50;;;;;;;20.76;58.73;100512.43;105963;1274;22848;-75
2022/07/25 07:45:27;;;;;;;2.70;2.50;;;;;;;20.77;58.06;100516.66;105500;1277;24152;-78
2022/07/25 07:47:55;;;;;;;5.20;2.60;;;;;;;20.76;57.57;100516.70;105803;1276;24255;-79
2022/07/25 07:50:24;;;;;;;2.90;2.70;;;;;;;20.80;57.64;100508.46;105697;1275;23488;-78
2022/07/25 07:52:54;;;;;;;5.80;2.60;;;;;;;20.85;57.59;100507.86;105944;1277;24079;-77
2022/07/25 07:58:07;;;;;;;5.70;2.70;;;;;;;21.10;57.50;100505.55;105730;1276;25222;-79
2022/07/25 08:00:38;;;;;;;2.50;2.30;;;;;;;21.21;57.43;100508.75;105979;1274;22734;-77
2022/07/25 08:03:08;;;;;;;4.70;2.50;;;;;;;21.36;57.53;100508.90;106031;1276;22537;-78
2022/07/25 08:05:39;;;;;;;5.10;2.50;;;;;;;21.49;56.86;100506.23;105877;1275;22705;-78
2022/07/25 08:08:08;;;;;;;5.60;2.60;;;;;;;21.59;56.18;100500.49;105919;1275;24234;-77
2022/07/25 08:10:38;;;;;;;2.80;2.20;;;;;;;21.70;55.61;100498.33;105838;1277;24901;-81
2022/07/25 08:13:36;;;;;;;4.10;2.40;;;;;;;21.78;55.52;100494.33;105822;1274;24435;-80
2022/07/25 08:16:04;;;;;;;2.40;2.00;;;;;;;21.92;55.42;100491.59;106182;1274;25281;-78
2022/07/25 08:18:32;;;;;;;2.50;2.20;;;;;;;21.98;54.99;100491.63;105828;1274;25609;-79
2022/07/25 08:21:04;;;;;;;3.30;2.20;;;;;;;21.99;54.79;100488.51;106153;1274;24297;-74
2022/07/25 08:23:37;;;;;;;2.60;2.20;;;;;;;22.10;54.20;100492.07;106534;1275;22537;-78
2022/07/25 08:26:05;;;;;;;4.90;2.40;;;;;;;22.19;53.63;100491.92;107301;1274;22857;-77
2022/07/25 08:28:32;;;;;;;2.80;2.50;;;;;;;22.28;53.25;100494.66;107140;1275;22624;-78
2022/07/25 08:30:59;;;;;;;2.60;2.40;;;;;;;22.25;52.87;100492.27;107029;1276;25375;-75
2022/07/25 08:33:27;;;;;;;3.70;2.40;;;;;;;22.31;52.96;100488.92;107118;1276;22565;-79
2022/07/25 08:35:57;;;;;;;3.70;2.30;;;;;;;22.44;53.50;100483.15;106073;1282;22566;-79
2022/07/25 08:38:27;;;;;;;2.60;2.40;;;;;;;22.59;52.98;100480.17;106802;1282;22711;-77
2022/07/25 08:40:55;;;;;;;3.40;2.20;;;;;;;22.72;52.50;100473.12;106842;1282;22694;-75
2022/07/25 08:43:23;;;;;;;4.50;2.10;;;;;;;22.82;52.41;100473.42;106834;1282;26477;-79
2022/07/25 08:45:53;;;;;;;2.50;2.30;;;;;;;22.94;51.45;100474.58;105741;1282;26627;-80
2022/07/25 08:48:23;;;;;;;2.20;2.00;;;;;;;23.03;51.30;100472.20;105872;1282;25523;-78
2022/07/25 08:50:53;;;;;;;2.20;2.00;;;;;;;23.15;50.84;100472.37;105300;1282;22558;-77
2022/07/25 08:53:20;;;;;;;2.20;2.10;;;;;;;23.24;50.56;100471.13;105420;1276;22870;-80
2022/07/25 08:56:06;;;;;;;1.90;1.80;;;;;;;23.33;50.41;100467.73;105719;1277;23533;-77
2022/07/25 08:58:41;;;;;;;2.40;2.20;;;;;;;23.46;50.17;100460.82;105775;1279;25375;-81
2022/07/25 09:01:11;;;;;;;4.00;2.10;;;;;;;23.60;50.55;100461.39;105269;1282;22845;-82
2022/07/25 09:03:39;;;;;;;2.20;2.00;;;;;;;23.73;49.93;100459.88;105208;1282;25322;-81
2022/07/25 09:06:15;;;;;;;2.60;2.10;;;;;;;23.85;49.86;100460.20;105235;1282;24813;-80
2022/07/25 09:08:52;;;;;;;3.50;2.20;;;;;;;23.96;49.72;100464.36;105385;1282;25242;-80
2022/07/25 09:11:30;;;;;;;5.70;2.20;;;;;;;24.06;49.58;100462.79;105252;1282;22748;-80
2022/07/25 09:14:05;;;;;;;3.70;2.20;;;;;;;24.20;49.00;100463.53;105081;1282;25325;-76
2022/07/25 09:16:37;;;;;;;2.60;2.10;;;;;;;24.23;48.24;100462.45;105342;1282;22543;-76
2022/07/25 09:19:11;;;;;;;3.50;2.10;;;;;;;24.32;48.26;100455.42;105196;1279;22624;-76
2022/07/25 09:21:39;;;;;;;3.40;1.90;;;;;;;24.44;47.80;100454.47;105986;1276;22744;-79
2022/07/25 09:24:17;;;;;;;2.70;1.80;;;;;;;24.55;47.57;100447.27;106097;1276;22582;-79
2022/07/25 09:26:50;;;;;;;2.30;1.80;;;;;;;24.73;47.23;100447.86;105509;1282;22536;-78
2022/07/25 09:29:29;;;;;;;3.20;1.90;;;;;;;24.79;46.13;100443.34;104865;1288;22534;-78
2022/07/25 09:31:57;;;;;;;2.20;1.90;;;;;;;24.75;46.05;100439.59;104901;1287;22696;-78
2022/07/25 09:34:39;;;;;;;3.60;1.90;;;;;;;24.87;46.05;100441.54;105087;1287;25411;-76
2022/07/25 09:37:13;;;;;;;2.90;1.90;;;;;;;25.07;45.49;100440.19;104943;1287;22720;-78
2022/07/25 09:39:44;;;;;;;2.50;2.10;;;;;;;25.09;45.26;100442.37;104890;1288;22561;-77
2022/07/25 09:42:20;;;;;;;3.40;2.50;;;;;;;25.08;44.93;100440.80;105027;1287;25413;-78
2022/07/25 09:45:22;;;;;;;3.60;2.90;;;;;;;25.09;45.16;100440.54;104470;1287;22601;-78
2022/07/25 09:48:02;;;;;;;3.20;2.00;;;;;;;25.15;45.12;100432.38;104886;1282;24258;-77
2022/07/25 09:50:31;;;;;;;5.40;2.40;;;;;;;25.20;44.73;100434.42;105433;1282;22617;-77
2022/07/25 09:53:01;;;;;;;2.90;2.10;;;;;;;25.14;43.70;100438.41;105536;1282;24373;-79
2022/07/25 09:55:30;;;;;;;2.50;1.80;;;;;;;25.10;43.91;100435.48;105705;1282;23985;-77
2022/07/25 09:57:57;;;;;;;2.30;1.90;;;;;;;25.18;44.23;100428.43;106176;1281;22566;-78
2022/07/25 10:00:27;;;;;;;4.10;2.60;;;;;;;25.29;43.72;100429.95;106310;1282;22577;-78
2022/07/25 10:02:54;;;;;;;6.20;2.60;;;;;;;25.40;43.86;100431.77;106354;1276;26570;-80
2022/07/25 10:05:30;;;;;;;4.80;2.80;;;;;;;25.50;43.82;100435.77;106545;1276;24361;-79
2022/07/25 10:07:58;;;;;;;4.20;2.40;;;;;;;25.59;43.37;100434.76;106455;1276;25257;-77
2022/07/25 10:10:27;;;;;;;2.60;2.40;;;;;;;25.66;43.13;100427.98;105927;1279;23201;-77
2022/07/25 10:13:03;;;;;;;4.50;2.40;;;;;;;25.75;42.88;100427.13;105989;1278;22569;-75
2022/07/25 10:15:39;;;;;;;2.30;2.10;;;;;;;25.91;42.82;100419.84;106799;1278;25247;-77
2022/07/25 10:18:07;;;;;;;4.20;1.80;;;;;;;26.13;42.89;100420.61;106200;1276;23057;-77
2022/07/25 10:20:34;;;;;;;8.80;2.50;;;;;;;26.30;41.76;100421.12;106271;1276;23803;-78
2022/07/25 10:23:01;;;;;;;2.10;1.90;;;;;;;26.33;41.62;100411.90;106956;1279;22632;-79
2022/07/25 10:25:28;;;;;;;2.20;1.80;;;;;;;26.48;41.19;100410.10;108038;1276;25309;-78
2022/07/25 10:28:01;;;;;;;2.30;2.10;;;;;;;26.59;40.85;100409.83;107430;1281;22671;-78
2022/07/25 10:30:38;;;;;;;2.60;1.70;;;;;;;26.68;40.36;100404.43;107960;1281;22617;-78
2022/07/25 10:33:18;;;;;;;1.60;1.50;;;;;;;26.72;40.46;100398.69;106826;1281;22606;-79
2022/07/25 10:35:44;;;;;;;2.40;1.80;;;;;;;26.92;40.44;100395.91;105751;1281;22572;-81
2022/07/25 10:38:12;;;;;;;3.30;1.80;;;;;;;26.97;40.35;100396.92;105697;1281;23077;-75
2022/07/25 10:40:43;;;;;;;4.60;2.60;;;;;;;26.97;39.79;100389.52;105912;1281;22537;-79
2022/07/25 10:43:21;;;;;;;4.40;1.80;;;;;;;26.95;39.65;100382.67;106164;1281;24258;-75
2022/07/25 10:45:50;;;;;;;2.40;2.10;;;;;;;27.01;39.51;100385.84;105791;1276;22554;-77
2022/07/25 10:48:27;;;;;;;3.90;2.00;;;;;;;27.06;39.76;100378.39;106131;1276;23666;-77
2022/07/25 10:51:00;;;;;;;2.40;2.00;;;;;;;27.17;39.22;100373.05;106118;1276;24263;-77
2022/07/25 10:53:35;;;;;;;1.90;1.80;;;;;;;27.21;39.25;100375.41;106390;1276;22533;-78
2022/07/25 10:56:22;;;;;;;4.40;1.90;;;;;;;27.28;39.34;100373.80;106238;1279;22489;-78
2022/07/25 10:58:54;;;;;;;1.90;1.80;;;;;;;27.52;39.36;100376.02;106155;1276;24257;-80
2022/07/25 11:01:29;;;;;;;1.80;1.70;;;;;;;27.75;38.91;100373.08;105833;1276;25398;-77
2022/07/25 11:04:02;;;;;;;3.30;1.90;;;;;;;27.94;38.60;100369.23;105817;1276;22581;-78
2022/07/25 11:06:32;;;;;;;2.80;1.90;;;;;;;28.19;38.27;100363.36;105822;1276;23191;-81
2022/07/25 11:09:00;;;;;;;3.50;2.10;;;;;;;28.33;37.69;100362.76;105914;1276;23084;-79
2022/07/25 11:11:39;;;;;;;3.30;1.80;;;;;;;28.38;37.58;100364.71;105954;1276;22688;-78
2022/07/25 11:14:40;;;;;;;2.50;1.50;;;;;;;28.45;37.23;100362.11;105991;1276;25252;-78
2022/07/25 11:17:19;;;;;;;2.00;1.80;;;;;;;28.45;36.63;100360.99;105535;1276;25574;-77
2022/07/25 11:19:53;;;;;;;1.80;1.50;;;;;;;28.51;36.99;100365.76;105818;1278;22704;-80
2022/07/25 11:22:20;;;;;;;2.30;1.70;;;;;;;28.62;36.61;100362.27;105871;1276;22659;-76
2022/07/25 11:24:47;;;;;;;2.00;1.70;;;;;;;28.67;36.33;100364.00;105899;1276;22548;-79
2022/07/25 11:27:24;;;;;;;3.00;1.60;;;;;;;28.83;36.25;100351.63;105633;1279;25231;-76
2022/07/25 11:29:51;;;;;;;2.20;1.90;;;;;;;28.93;36.07;100346.56;106054;1276;25508;-79